createdAt,value
2023-04-23T00:00:52.956Z,10.94
2023-04-23T00:03:27.610Z,10.90
2023-04-23T00:06:00.744Z,10.87
2023-04-23T00:08:31.471Z,10.84
2023-04-23T00:11:01.763Z,10.81
2023-04-23T00:13:31.951Z,10.78
2023-04-23T00:16:06.030Z,10.76
2023-04-23T00:18:35.926Z,10.74
2023-04-23T00:21:05.897Z,10.73
2023-04-23T00:23:35.745Z,10.72
2023-04-23T00:26:05.592Z,10.67
2023-04-23T00:28:35.534Z,10.66
2023-04-23T00:31:08.007Z,10.63
2023-04-23T00:33:38.778Z,10.63
2023-04-23T00:36:09.530Z,10.60
2023-04-23T00:38:40.937Z,10.57
2023-04-23T00:41:11.168Z,10.54
2023-04-23T00:43:42.278Z,10.50
2023-04-23T00:46:18.555Z,10.47
2023-04-23T00:48:49.172Z,10.46
2023-04-23T00:51:27.586Z,10.42
2023-04-23T00:53:57.870Z,10.43
2023-04-23T00:56:30.597Z,10.40
2023-04-23T01:17:16.626Z,10.33
2023-04-23T01:19:46.700Z,10.33
2023-04-23T01:22:19.869Z,10.33
2023-04-23T01:24:50.464Z,10.32
2023-04-23T01:27:21.244Z,10.31
2023-04-23T01:29:51.278Z,10.31
2023-04-23T01:32:21.422Z,10.30
2023-04-23T01:34:52.097Z,10.27
2023-04-23T01:37:29.503Z,10.26
2023-04-23T01:56:05.583Z,10.22
2023-04-23T01:58:43.796Z,10.27
2023-04-23T02:01:13.627Z,10.29
2023-04-23T02:03:43.704Z,10.31
2023-04-23T02:06:14.066Z,10.30
2023-04-23T02:08:44.160Z,10.29
2023-04-23T02:11:16.620Z,10.27
2023-04-23T02:13:46.463Z,10.29
2023-04-23T02:16:16.474Z,10.29
2023-04-23T02:18:46.464Z,10.29
2023-04-23T02:21:16.498Z,10.30
2023-04-23T02:23:49.135Z,10.30
2023-04-23T06:30:00.413Z,11.31
2023-04-23T06:32:31.318Z,11.44
2023-04-23T07:43:02.932Z,14.87
2023-04-23T07:45:33.654Z,14.83
2023-04-23T07:48:03.603Z,14.79
2023-04-23T07:50:33.555Z,14.84
2023-04-23T07:53:03.541Z,14.88
2023-04-23T07:55:33.689Z,14.97
2023-04-23T07:58:06.313Z,15.07
2023-04-23T08:00:36.196Z,15.14
2023-04-23T08:03:06.333Z,15.22
2023-04-23T08:05:37.589Z,15.31
2023-04-23T08:08:10.033Z,15.52
2023-04-23T08:10:39.846Z,15.65
2023-04-23T08:13:12.442Z,15.76
2023-04-23T08:15:42.320Z,15.90
2023-04-23T08:18:23.845Z,15.97
2023-04-23T08:20:54.252Z,16.11
2023-04-23T08:23:24.435Z,16.21
2023-04-23T08:25:54.515Z,16.33
2023-04-23T08:28:28.396Z,16.43
2023-04-23T08:30:58.371Z,16.56
2023-04-23T08:33:28.562Z,16.73
2023-04-23T08:35:58.433Z,16.85
2023-04-23T08:38:28.533Z,17.02
2023-04-23T08:41:01.052Z,17.16
2023-04-23T08:43:42.440Z,17.30
2023-04-23T08:46:16.298Z,17.44
2023-04-23T08:48:48.107Z,17.59
2023-04-23T08:51:23.857Z,17.69
2023-04-23T08:53:59.085Z,17.84
2023-04-23T08:56:30.792Z,17.99
2023-04-23T08:59:04.185Z,18.13
2023-04-23T09:01:42.766Z,18.22
2023-04-23T09:04:17.862Z,18.32
2023-04-23T09:06:47.696Z,18.39
2023-04-23T09:09:19.763Z,18.48
2023-04-23T09:11:49.665Z,18.64
2023-04-23T09:14:29.615Z,18.70
2023-04-23T09:16:59.576Z,18.80
2023-04-23T09:19:30.708Z,18.90
2023-04-23T09:22:02.298Z,18.95
2023-04-23T09:24:35.001Z,18.93
2023-04-23T09:27:04.881Z,18.91
2023-04-23T09:29:37.303Z,18.93
2023-04-23T09:32:11.182Z,18.95
2023-04-23T09:34:43.630Z,18.90
2023-04-23T09:37:16.293Z,18.88
2023-04-23T09:39:46.327Z,18.84
2023-04-23T09:42:18.716Z,18.86
2023-04-23T09:44:59.577Z,18.72
2023-04-23T09:47:32.874Z,18.60
2023-04-23T09:50:03.623Z,18.49
2023-04-23T09:52:35.073Z,18.40
2023-04-23T09:55:05.916Z,18.32
2023-04-23T09:57:40.545Z,18.28
2023-04-23T10:00:23.130Z,18.36
2023-04-23T10:02:55.145Z,18.44
2023-04-23T10:05:33.964Z,18.52
2023-04-23T10:08:16.616Z,18.62
2023-04-23T10:11:05.923Z,18.64
2023-04-23T10:13:41.059Z,18.73
2023-04-23T10:16:23.206Z,18.80
2023-04-23T10:31:32.286Z,18.97
2023-04-23T10:34:13.383Z,18.88
2023-04-23T10:36:48.451Z,18.88
2023-04-23T10:39:30.122Z,18.91
2023-04-23T11:24:19.065Z,18.40
2023-04-23T11:26:51.625Z,18.35
2023-04-23T11:29:34.551Z,18.42
2023-04-23T11:32:05.637Z,18.55
2023-04-23T11:34:38.141Z,18.66
2023-04-23T11:37:16.832Z,18.77
2023-04-23T11:39:56.886Z,18.81
2023-04-23T11:42:30.982Z,18.88
2023-04-23T11:45:20.892Z,18.92
2023-04-23T11:47:56.720Z,19.05
2023-04-23T11:50:41.304Z,19.17
2023-04-23T11:53:16.225Z,19.31
2023-04-23T11:55:55.129Z,19.34
2023-04-23T11:58:30.796Z,19.39
2023-04-23T12:01:02.838Z,19.47
2023-04-23T12:03:35.447Z,19.49
2023-04-23T12:06:05.989Z,19.48
2023-04-23T12:08:40.809Z,19.48
2023-04-23T12:11:17.316Z,19.48
2023-04-23T12:13:51.896Z,19.52
2023-04-23T12:16:38.145Z,19.59
2023-04-23T12:19:11.301Z,19.69
2023-04-23T12:21:54.759Z,19.75
2023-04-23T12:24:28.266Z,19.85
2023-04-23T12:27:03.139Z,19.96
2023-04-23T12:29:39.668Z,20.02
2023-04-23T13:10:14.920Z,20.02
2023-04-23T13:12:46.009Z,20.03
2023-04-23T13:15:16.187Z,20.02
2023-04-23T13:17:48.032Z,20.00
2023-04-23T13:20:18.003Z,20.00
2023-04-23T13:22:47.790Z,20.01
2023-04-23T13:25:20.428Z,20.00
2023-04-23T13:27:50.229Z,19.94
2023-04-23T13:30:20.167Z,19.86
2023-04-23T13:32:50.123Z,19.85
2023-04-23T13:35:20.153Z,19.84
2023-04-23T13:37:50.027Z,19.88
2023-04-23T13:40:22.602Z,19.91
2023-04-23T13:42:55.310Z,19.91
2023-04-23T13:45:25.133Z,19.86
2023-04-23T13:47:55.518Z,19.85
2023-04-23T13:50:25.459Z,19.92
2023-04-23T13:52:55.290Z,19.94
2023-04-23T13:55:27.865Z,19.96
2023-04-23T13:57:59.061Z,19.97
2023-04-23T14:00:31.299Z,19.99
2023-04-23T14:03:01.246Z,19.98
2023-04-23T14:05:31.156Z,19.98
2023-04-23T14:08:05.269Z,19.98
2023-04-23T14:10:38.279Z,19.99
2023-04-23T14:13:08.188Z,20.06
2023-04-23T14:15:38.308Z,20.10
2023-04-23T14:18:08.822Z,20.14
2023-04-23T14:20:38.658Z,20.20
2023-04-23T14:23:36.363Z,20.20
2023-04-23T14:26:15.648Z,20.19
2023-04-23T14:28:53.783Z,20.21
2023-04-23T14:31:32.608Z,20.22
2023-04-23T16:49:48.776Z,19.63
2023-04-23T16:52:33.014Z,19.63
2023-04-23T17:28:12.138Z,18.98
2023-04-23T17:30:52.577Z,18.90
2023-04-23T17:33:25.167Z,18.86
2023-04-23T17:44:58.002Z,17.46
2023-04-23T17:47:41.071Z,17.06
2023-04-23T17:50:12.386Z,16.77
2023-04-23T17:53:05.567Z,16.48
2023-04-23T17:55:37.796Z,16.13
2023-04-23T17:58:09.735Z,15.86
2023-04-23T18:00:44.337Z,15.62
2023-04-23T18:03:26.815Z,15.44
2023-04-23T18:05:59.609Z,15.27
2023-04-23T18:08:30.473Z,15.17
2023-04-23T18:19:10.148Z,15.03
2023-04-23T18:21:51.099Z,15.02
2023-04-23T18:24:25.396Z,15.07
2023-04-23T18:26:55.394Z,15.12
2023-04-23T18:30:05.903Z,15.10
2023-04-23T18:43:52.381Z,15.12
2023-04-23T18:46:30.868Z,15.18
2023-04-23T18:49:06.796Z,15.24
2023-04-23T18:51:45.969Z,15.28
2023-04-23T18:54:25.754Z,15.30
2023-04-23T18:56:56.269Z,15.34
2023-04-23T18:59:35.357Z,15.34
2023-04-23T19:02:14.619Z,15.33
2023-04-23T19:04:51.883Z,15.37
2023-04-23T19:07:23.002Z,15.42
2023-04-23T19:09:52.831Z,15.45
2023-04-23T19:12:26.890Z,15.45
2023-04-23T19:14:56.780Z,15.45
2023-04-23T19:17:29.500Z,15.37
2023-04-23T19:20:04.110Z,15.26
2023-04-23T19:22:35.472Z,15.18
2023-04-23T19:25:13.493Z,15.17
2023-04-23T19:27:46.032Z,15.20
2023-04-23T19:30:18.553Z,15.17
2023-04-23T19:32:52.380Z,15.06
2023-04-23T19:35:28.775Z,14.98
2023-04-23T19:38:00.036Z,14.83
2023-04-23T19:40:29.931Z,14.70
2023-04-23T19:42:59.736Z,14.57
2023-04-23T19:45:40.041Z,14.46
2023-04-23T19:48:21.950Z,14.37
2023-04-23T19:50:55.454Z,14.32
2023-04-23T19:53:25.835Z,14.22
2023-04-23T19:55:59.135Z,14.19
2023-04-23T19:58:32.339Z,14.16
2023-04-23T20:01:02.222Z,14.11
2023-04-23T20:03:34.912Z,14.08
2023-04-23T20:06:09.840Z,14.05
2023-04-23T20:09:04.739Z,13.92
2023-04-23T20:11:34.898Z,13.83
2023-04-23T20:14:04.837Z,13.78
2023-04-23T20:16:43.452Z,13.71
2023-04-23T20:19:22.137Z,13.63
2023-04-23T22:28:49.757Z,12.23
2023-04-23T22:31:20.105Z,12.27
2023-04-23T22:33:49.940Z,12.33
2023-04-23T22:36:25.329Z,12.37
